createdAt,value
2016-08-07T00:00:56.799Z,0
2016-08-07T00:01:56.843Z,0
2016-08-07T00:03:00.334Z,0
2016-08-07T00:03:58.486Z,0
2016-08-07T00:04:56.831Z,0
2016-08-07T00:05:57.230Z,0
2016-08-07T00:06:56.775Z,0
2016-08-07T00:07:56.819Z,0
2016-08-07T00:08:56.770Z,0
2016-08-07T00:09:56.755Z,0
2016-08-07T00:10:56.746Z,0
2016-08-07T00:11:56.740Z,0
2016-08-07T00:12:56.768Z,0
2016-08-07T00:13:59.659Z,0
2016-08-07T00:15:00.160Z,0
2016-08-07T00:15:58.037Z,0
2016-08-07T00:16:57.925Z,0
2016-08-07T00:17:56.716Z,0
2016-08-07T00:18:57.959Z,0
2016-08-07T00:19:56.716Z,0
2016-08-07T00:20:56.723Z,0
2016-08-07T00:21:56.702Z,0
2016-08-07T00:23:58.955Z,0
2016-08-07T00:25:01.035Z,0
2016-08-07T00:25:57.980Z,0
2016-08-07T00:26:58.177Z,0
2016-08-07T00:27:57.059Z,0
2016-08-07T00:28:57.616Z,0
2016-08-07T00:29:56.663Z,0
2016-08-07T00:30:56.806Z,0
2016-08-07T00:31:56.648Z,0
2016-08-07T00:32:56.642Z,0
2016-08-07T00:33:56.648Z,0
2016-08-07T00:34:56.644Z,0
2016-08-07T00:35:56.633Z,0
2016-08-07T00:36:56.634Z,0
2016-08-07T00:37:56.619Z,0
2016-08-07T00:38:57.310Z,0
2016-08-07T00:39:56.633Z,0
2016-08-07T00:40:56.611Z,0
2016-08-07T00:41:56.607Z,0
2016-08-07T00:42:58.747Z,0
2016-08-07T00:43:56.598Z,0
2016-08-07T00:44:56.596Z,0
2016-08-07T00:45:56.590Z,0
2016-08-07T00:46:57.282Z,0
2016-08-07T00:47:56.582Z,0
2016-08-07T00:48:56.572Z,0
2016-08-07T00:49:56.667Z,0
2016-08-07T00:51:56.563Z,0
2016-08-07T00:52:56.554Z,0
2016-08-07T00:53:56.548Z,0
2016-08-07T00:54:56.559Z,0
2016-08-07T00:55:56.545Z,0
2016-08-07T00:56:56.540Z,0
2016-08-07T00:57:56.536Z,0
2016-08-07T00:58:56.517Z,0
2016-08-07T00:59:56.526Z,0
2016-08-07T01:00:56.528Z,0
2016-08-07T01:01:56.516Z,0
2016-08-07T01:02:56.511Z,0
2016-08-07T01:03:56.551Z,0
2016-08-07T01:04:56.498Z,0
2016-08-07T01:05:56.509Z,0
2016-08-07T01:06:56.495Z,0
2016-08-07T01:07:56.476Z,0
2016-08-07T01:08:56.481Z,0
2016-08-07T01:09:56.461Z,0
2016-08-07T01:10:56.469Z,0
2016-08-07T01:11:57.278Z,0
2016-08-07T01:12:57.385Z,0
2016-08-07T01:13:56.698Z,0
2016-08-07T01:14:57.187Z,0
2016-08-07T01:15:56.448Z,0
2016-08-07T01:17:56.872Z,0
2016-08-07T01:18:56.428Z,0
2016-08-07T01:19:56.425Z,0
2016-08-07T01:21:57.117Z,0
2016-08-07T01:23:11.823Z,0
2016-08-07T01:23:56.551Z,0
2016-08-07T01:25:12.055Z,0
2016-08-07T01:25:57.141Z,0
2016-08-07T01:26:57.236Z,0
2016-08-07T01:27:56.596Z,0
2016-08-07T01:28:56.374Z,0
2016-08-07T01:29:56.379Z,0
2016-08-07T01:30:56.359Z,0
2016-08-07T01:31:56.373Z,0
2016-08-07T01:32:58.030Z,0
2016-08-07T01:34:00.986Z,0
2016-08-07T01:34:58.247Z,0
2016-08-07T01:35:58.744Z,0
2016-08-07T01:36:57.954Z,0
2016-08-07T01:37:56.348Z,0
2016-08-07T01:38:56.754Z,0
2016-08-07T01:39:56.407Z,0
2016-08-07T01:40:56.320Z,0
2016-08-07T01:42:58.256Z,0
2016-08-07T01:43:59.544Z,0
2016-08-07T01:44:57.347Z,0
2016-08-07T01:45:57.018Z,0
2016-08-07T01:46:56.281Z,0
2016-08-07T01:47:56.465Z,0
2016-08-07T01:48:59.255Z,0
2016-08-07T01:49:56.325Z,0
2016-08-07T01:50:56.290Z,0
2016-08-07T01:51:56.283Z,0
2016-08-07T01:52:56.258Z,0
2016-08-07T01:53:57.385Z,0
2016-08-07T01:54:56.930Z,0
2016-08-07T01:55:56.248Z,0
2016-08-07T01:56:56.239Z,0
2016-08-07T01:57:56.235Z,0
2016-08-07T01:58:56.229Z,0
2016-08-07T01:59:56.216Z,0
2016-08-07T02:00:56.208Z,0
2016-08-07T02:01:56.221Z,0
2016-08-07T02:02:56.196Z,0
2016-08-07T02:03:56.355Z,0
2016-08-07T02:04:56.203Z,0
2016-08-07T02:05:56.195Z,0
2016-08-07T02:06:56.170Z,0
2016-08-07T02:07:56.869Z,0
2016-08-07T02:08:56.196Z,0
2016-08-07T02:09:56.224Z,0
2016-08-07T02:10:56.170Z,0
2016-08-07T02:11:56.147Z,0
2016-08-07T02:12:56.154Z,0
2016-08-07T02:13:56.144Z,0
2016-08-07T02:14:56.140Z,0
2016-08-07T02:15:56.194Z,0
2016-08-07T02:16:56.147Z,0
2016-08-07T02:17:56.125Z,0
2016-08-07T02:18:56.130Z,0
2016-08-07T02:19:56.114Z,0
2016-08-07T02:20:56.110Z,0
2016-08-07T02:21:56.103Z,0
2016-08-07T02:22:56.112Z,0
2016-08-07T02:23:57.832Z,0
2016-08-07T02:24:56.088Z,0
2016-08-07T02:25:56.090Z,0
2016-08-07T02:26:56.076Z,0
2016-08-07T02:27:56.075Z,0
2016-08-07T02:28:56.080Z,0
2016-08-07T02:29:57.629Z,0
2016-08-07T02:30:57.908Z,0
2016-08-07T02:31:56.682Z,0
2016-08-07T02:32:58.382Z,0
2016-08-07T02:33:56.503Z,0
2016-08-07T02:34:56.042Z,0
2016-08-07T02:35:56.329Z,0
2016-08-07T02:36:56.133Z,0
2016-08-07T02:37:56.012Z,0
2016-08-07T02:39:10.930Z,0
2016-08-07T02:39:57.574Z,0
2016-08-07T02:40:56.764Z,0
2016-08-07T02:41:56.945Z,0
2016-08-07T02:43:10.962Z,0
2016-08-07T02:43:55.985Z,0
2016-08-07T02:44:56.637Z,0
2016-08-07T02:45:55.983Z,0
2016-08-07T02:46:56.682Z,0
2016-08-07T02:47:55.979Z,0
2016-08-07T02:48:55.985Z,0
2016-08-07T02:49:55.953Z,0
2016-08-07T02:52:59.948Z,0
2016-08-07T02:53:58.085Z,0
2016-08-07T02:54:58.097Z,0
2016-08-07T02:55:55.941Z,0
2016-08-07T02:56:55.947Z,0
2016-08-07T02:57:56.618Z,0
2016-08-07T02:58:55.916Z,0
2016-08-07T03:00:01.695Z,0
2016-08-07T03:00:58.698Z,0
2016-08-07T03:01:58.425Z,0
2016-08-07T03:02:57.065Z,0
2016-08-07T03:03:57.539Z,0
2016-08-07T03:04:57.030Z,0
2016-08-07T03:05:56.251Z,0
2016-08-07T03:06:55.903Z,0
2016-08-07T03:07:55.874Z,0
2016-08-07T03:08:55.865Z,0
2016-08-07T03:09:55.859Z,0
2016-08-07T03:10:55.860Z,0
2016-08-07T03:11:55.874Z,0
2016-08-07T03:12:55.855Z,0
2016-08-07T03:13:55.891Z,0
2016-08-07T03:14:56.532Z,0
2016-08-07T03:15:55.836Z,0
2016-08-07T03:16:55.911Z,0
2016-08-07T03:17:55.833Z,0
2016-08-07T03:18:55.843Z,0
2016-08-07T03:19:56.509Z,0
2016-08-07T03:20:55.801Z,0
2016-08-07T03:21:55.802Z,0
2016-08-07T03:22:55.822Z,0
2016-08-07T03:23:55.794Z,0
2016-08-07T03:24:55.799Z,0
2016-08-07T03:25:55.819Z,5
2016-08-07T03:26:56.608Z,5
2016-08-07T03:27:55.777Z,5
2016-08-07T03:28:55.775Z,5
2016-08-07T03:29:57.424Z,5
2016-08-07T03:30:55.771Z,5
2016-08-07T03:31:55.765Z,10
2016-08-07T03:32:55.762Z,10
2016-08-07T03:33:55.758Z,10
2016-08-07T03:34:55.950Z,10
2016-08-07T03:35:55.745Z,15
2016-08-07T03:36:55.736Z,15
2016-08-07T03:37:55.737Z,15
2016-08-07T03:38:55.748Z,15
2016-08-07T03:39:55.741Z,15
2016-08-07T03:40:55.728Z,15
2016-08-07T03:41:55.760Z,15
2016-08-07T03:42:55.713Z,10
2016-08-07T03:43:55.733Z,15
2016-08-07T03:44:55.709Z,15
2016-08-07T03:45:55.702Z,15
2016-08-07T03:46:55.691Z,20
2016-08-07T03:47:55.694Z,25
2016-08-07T03:49:26.426Z,25
2016-08-07T03:50:57.638Z,30
2016-08-07T03:51:56.121Z,35
2016-08-07T03:52:56.819Z,35
2016-08-07T03:53:55.702Z,40
2016-08-07T03:54:56.114Z,45
2016-08-07T03:55:55.671Z,45
2016-08-07T03:56:55.654Z,45
2016-08-07T03:58:13.292Z,45
2016-08-07T03:58:57.843Z,45
2016-08-07T03:59:56.499Z,45
2016-08-07T04:01:10.647Z,45
2016-08-07T04:01:56.681Z,50
2016-08-07T04:02:56.100Z,50
2016-08-07T04:03:55.827Z,50
2016-08-07T04:04:55.612Z,55
2016-08-07T04:05:55.613Z,55
2016-08-07T04:06:55.609Z,55
2016-08-07T04:07:55.603Z,50
2016-08-07T04:08:58.566Z,55
2016-08-07T04:09:58.080Z,50
2016-08-07T04:10:58.976Z,55
2016-08-07T04:11:58.033Z,55
2016-08-07T04:12:56.055Z,60
2016-08-07T04:13:56.564Z,65
2016-08-07T04:14:55.942Z,75
2016-08-07T04:15:56.275Z,80
2016-08-07T04:16:55.579Z,95
2016-08-07T04:18:59.494Z,115
2016-08-07T04:19:57.048Z,115
2016-08-07T04:20:56.712Z,130
2016-08-07T04:21:58.081Z,145
2016-08-07T04:22:56.137Z,135
2016-08-07T04:23:56.015Z,145
2016-08-07T04:24:55.541Z,135
2016-08-07T04:25:55.549Z,135
2016-08-07T04:26:55.615Z,125
2016-08-07T04:27:55.554Z,145
2016-08-07T04:28:55.527Z,160
2016-08-07T04:29:55.523Z,195
2016-08-07T04:30:55.537Z,210
2016-08-07T04:31:55.510Z,210
2016-08-07T04:32:55.511Z,225
2016-08-07T04:33:55.531Z,230
2016-08-07T04:34:55.515Z,230
2016-08-07T04:35:55.602Z,235
2016-08-07T04:37:55.532Z,230
2016-08-07T04:38:55.511Z,185
2016-08-07T04:39:55.547Z,230
2016-08-07T04:40:55.518Z,285
2016-08-07T04:41:55.501Z,300
2016-08-07T04:42:56.485Z,305
2016-08-07T04:43:55.483Z,285
2016-08-07T04:44:55.485Z,220
2016-08-07T04:45:55.487Z,190
2016-08-07T04:46:55.492Z,185
2016-08-07T04:47:55.482Z,190
2016-08-07T04:48:55.486Z,245
2016-08-07T04:49:55.479Z,345
2016-08-07T04:50:55.489Z,255
2016-08-07T04:52:55.509Z,390
2016-08-07T04:53:55.491Z,285
2016-08-07T04:54:55.495Z,255
2016-08-07T04:55:55.481Z,235
2016-08-07T04:56:56.207Z,220
2016-08-07T04:57:55.492Z,220
2016-08-07T04:58:55.479Z,405
2016-08-07T04:59:55.488Z,435
2016-08-07T05:00:55.497Z,455
2016-08-07T05:01:55.486Z,450
2016-08-07T05:02:55.489Z,430
2016-08-07T05:03:55.504Z,425
2016-08-07T05:04:55.501Z,460
2016-08-07T05:05:55.491Z,515
2016-08-07T05:08:10.813Z,530
2016-08-07T05:09:10.919Z,545
2016-08-07T05:11:56.925Z,465
2016-08-07T05:12:55.504Z,555
2016-08-07T05:13:55.507Z,495
2016-08-07T05:14:55.522Z,465
2016-08-07T05:16:12.494Z,650
2016-08-07T05:18:55.779Z,620
2016-08-07T05:20:55.741Z,485
2016-08-07T05:21:55.542Z,340
2016-08-07T05:22:55.698Z,655
2016-08-07T05:23:55.558Z,470
2016-08-07T05:24:55.555Z,660
2016-08-07T05:25:56.277Z,500
2016-08-07T05:26:59.475Z,440
2016-08-07T05:27:57.277Z,355
2016-08-07T05:28:57.449Z,300
2016-08-07T05:29:57.429Z,275
2016-08-07T05:30:56.218Z,265
2016-08-07T05:32:55.605Z,265
2016-08-07T05:33:55.620Z,290
2016-08-07T05:34:55.608Z,640
2016-08-07T05:36:58.751Z,760
2016-08-07T05:37:57.439Z,770
2016-08-07T05:38:58.017Z,780
2016-08-07T05:39:58.106Z,835
2016-08-07T05:40:57.047Z,885
2016-08-07T05:41:55.645Z,895
2016-08-07T05:42:55.660Z,890
2016-08-07T05:43:56.363Z,875
2016-08-07T05:44:55.675Z,850
2016-08-07T05:45:55.679Z,830
2016-08-07T05:46:55.691Z,905
2016-08-07T05:47:55.696Z,690
2016-08-07T05:48:55.715Z,905
2016-08-07T05:49:56.828Z,970
2016-08-07T05:50:56.413Z,1000
2016-08-07T05:51:55.733Z,1015
2016-08-07T05:52:55.740Z,985
2016-08-07T05:53:55.750Z,510
2016-08-07T05:54:55.755Z,420
2016-08-07T05:55:55.773Z,940
2016-08-07T05:56:55.777Z,1150
2016-08-07T05:57:56.465Z,1040
2016-08-07T05:58:55.782Z,935
2016-08-07T05:59:55.787Z,960
2016-08-07T06:00:55.801Z,1040
2016-08-07T06:01:55.797Z,1100
2016-08-07T06:02:55.822Z,1125
2016-08-07T06:03:55.923Z,1175
2016-08-07T06:04:56.543Z,1200
2016-08-07T06:05:55.844Z,1245
2016-08-07T06:06:55.851Z,1235
2016-08-07T06:07:55.866Z,1210
2016-08-07T06:08:55.873Z,1165
2016-08-07T06:09:56.095Z,1130
2016-08-07T06:10:55.899Z,1175
2016-08-07T06:11:55.906Z,1215
2016-08-07T06:12:55.910Z,1235
2016-08-07T06:13:55.922Z,1235
2016-08-07T06:14:55.931Z,1260
2016-08-07T06:15:55.957Z,1350
2016-08-07T06:16:56.179Z,1370
2016-08-07T06:17:56.052Z,1275
2016-08-07T06:18:55.973Z,1285
2016-08-07T06:19:55.995Z,655
2016-08-07T06:20:56.006Z,1405
2016-08-07T06:21:56.039Z,1405
2016-08-07T06:22:56.027Z,1405
2016-08-07T06:23:56.037Z,1375
2016-08-07T06:24:56.890Z,1430
2016-08-07T06:26:11.928Z,675
2016-08-07T06:27:56.382Z,1425
2016-08-07T06:28:56.248Z,1470
2016-08-07T06:29:57.056Z,1460
2016-08-07T06:30:56.419Z,1175
2016-08-07T06:31:56.122Z,1420
2016-08-07T06:32:56.140Z,1440
2016-08-07T06:34:11.660Z,1475
2016-08-07T06:35:56.878Z,1500
2016-08-07T06:37:11.549Z,1515
2016-08-07T06:37:56.897Z,1515
2016-08-07T06:38:57.061Z,1550
2016-08-07T06:39:56.924Z,540
2016-08-07T06:40:56.246Z,1605
2016-08-07T06:41:56.249Z,1635
2016-08-07T06:42:56.265Z,1625
2016-08-07T06:43:56.962Z,1605
2016-08-07T06:44:56.286Z,1535
2016-08-07T06:45:58.083Z,1405
2016-08-07T06:46:57.593Z,1120
2016-08-07T06:47:58.557Z,1785
2016-08-07T06:48:59.104Z,1775
2016-08-07T06:49:58.308Z,1765
2016-08-07T06:50:56.676Z,1805
2016-08-07T06:51:57.137Z,1560
2016-08-07T06:52:56.406Z,1670
2016-08-07T06:53:56.409Z,1730
2016-08-07T06:55:59.262Z,1680
2016-08-07T06:56:57.286Z,1705
2016-08-07T06:57:58.449Z,1785
2016-08-07T06:58:58.172Z,1835
2016-08-07T06:59:56.978Z,1855
2016-08-07T07:00:56.502Z,1885
2016-08-07T07:01:56.532Z,1940
2016-08-07T07:02:56.536Z,2035
2016-08-07T07:03:56.651Z,2025
2016-08-07T07:04:56.580Z,1910
2016-08-07T07:05:57.297Z,1770
2016-08-07T07:06:56.598Z,1740
2016-08-07T07:07:56.626Z,1820
2016-08-07T07:08:56.645Z,1880
2016-08-07T07:09:56.650Z,1915
2016-08-07T07:10:56.662Z,1950
2016-08-07T07:11:56.675Z,1925
2016-08-07T07:12:56.692Z,1915
2016-08-07T07:13:56.710Z,1950
2016-08-07T07:14:57.417Z,1990
2016-08-07T07:15:56.749Z,1985
2016-08-07T07:16:56.773Z,1950
2016-08-07T07:17:56.772Z,1885
2016-08-07T07:18:56.793Z,1860
2016-08-07T07:19:56.839Z,1845
2016-08-07T07:20:56.822Z,1860
2016-08-07T07:21:56.855Z,1875
2016-08-07T07:22:56.862Z,1895
2016-08-07T07:23:56.886Z,1890
2016-08-07T07:24:57.609Z,1915
2016-08-07T07:25:56.911Z,1975
2016-08-07T07:26:56.924Z,1945
2016-08-07T07:27:56.933Z,1970
2016-08-07T07:28:56.964Z,1920
2016-08-07T07:29:56.974Z,1925
2016-08-07T07:30:57.001Z,1920
2016-08-07T07:31:57.021Z,1895
2016-08-07T07:32:57.030Z,1950
2016-08-07T07:33:57.052Z,2045
2016-08-07T07:34:57.067Z,2065
2016-08-07T07:35:57.089Z,2035
2016-08-07T07:36:57.098Z,1945
2016-08-07T07:37:57.817Z,1805
2016-08-07T07:38:57.135Z,1800
2016-08-07T07:39:57.146Z,1810
2016-08-07T07:40:57.163Z,1780
2016-08-07T07:41:57.211Z,1945
2016-08-07T07:42:58.939Z,1465
2016-08-07T07:44:12.996Z,2010
2016-08-07T07:44:58.035Z,585
2016-08-07T07:45:58.064Z,2005
2016-08-07T07:46:57.785Z,2000
2016-08-07T08:02:39.545Z,3045
2016-08-07T08:03:42.517Z,3095
2016-08-07T08:05:41.569Z,2400
2016-08-07T08:06:40.952Z,2875
2016-08-07T08:07:40.068Z,2850
2016-08-07T08:08:40.171Z,430
2016-08-07T08:09:39.903Z,350
2016-08-07T08:10:39.695Z,350
2016-08-07T08:11:39.724Z,345
2016-08-07T08:12:41.835Z,335
2016-08-07T08:13:42.088Z,420
2016-08-07T08:14:43.885Z,365
2016-08-07T08:15:40.374Z,2895
2016-08-07T08:16:39.996Z,2855
2016-08-07T08:17:40.530Z,2370
2016-08-07T08:18:40.590Z,1975
2016-08-07T08:19:40.039Z,1970
2016-08-07T08:20:39.846Z,1965
2016-08-07T08:21:39.871Z,2025
2016-08-07T08:22:39.890Z,2150
2016-08-07T08:23:39.906Z,2205
2016-08-07T08:24:39.917Z,2295
2016-08-07T08:25:40.629Z,820
2016-08-07T08:26:39.958Z,615
2016-08-07T08:27:39.959Z,2185
2016-08-07T08:28:39.981Z,1300
2016-08-07T08:29:39.983Z,850
2016-08-07T08:30:40.005Z,1960
2016-08-07T08:31:40.017Z,1890
2016-08-07T08:32:40.739Z,400
2016-08-07T08:33:40.045Z,405
2016-08-07T08:34:40.055Z,1405
2016-08-07T08:35:40.814Z,465
2016-08-07T08:36:40.087Z,470
2016-08-07T08:37:40.109Z,395
2016-08-07T08:38:40.127Z,330
2016-08-07T08:39:40.815Z,295
2016-08-07T08:40:40.135Z,275
2016-08-07T08:41:40.147Z,285
2016-08-07T08:42:40.157Z,2090
2016-08-07T08:43:40.169Z,2105
2016-08-07T08:44:40.185Z,1870
2016-08-07T08:45:40.190Z,995
2016-08-07T08:46:40.195Z,450
2016-08-07T08:47:40.219Z,480
2016-08-07T08:48:40.230Z,505
2016-08-07T08:49:40.231Z,485
2016-08-07T08:50:40.247Z,470
2016-08-07T08:51:40.944Z,450
2016-08-07T08:52:40.263Z,505
2016-08-07T08:53:40.280Z,625
2016-08-07T08:54:40.278Z,615
2016-08-07T08:55:40.308Z,555
2016-08-07T08:56:40.298Z,560
2016-08-07T08:57:40.321Z,515
2016-08-07T08:58:40.326Z,440
2016-08-07T08:59:40.319Z,405
2016-08-07T09:00:41.042Z,380
2016-08-07T09:01:42.139Z,390
2016-08-07T09:02:41.300Z,395
2016-08-07T09:03:55.878Z,415
2016-08-07T09:05:40.515Z,395
2016-08-07T09:06:40.379Z,425
2016-08-07T09:07:40.379Z,480
2016-08-07T09:08:40.396Z,495
2016-08-07T09:09:40.403Z,490
2016-08-07T09:10:41.958Z,475
2016-08-07T09:11:41.711Z,475
2016-08-07T09:13:11.163Z,475
2016-08-07T09:13:42.235Z,485
2016-08-07T09:14:40.582Z,450
2016-08-07T09:15:40.793Z,440
2016-08-07T09:16:40.440Z,480
2016-08-07T09:17:40.713Z,520
2016-08-07T09:18:41.154Z,565
2016-08-07T09:19:40.464Z,600
2016-08-07T09:20:40.471Z,600
2016-08-07T09:21:42.628Z,625
2016-08-07T09:22:43.498Z,565
2016-08-07T09:23:42.226Z,450
2016-08-07T09:24:42.755Z,395
2016-08-07T09:25:42.738Z,390
2016-08-07T09:26:41.462Z,395
2016-08-07T09:27:40.515Z,440
2016-08-07T09:28:40.535Z,490
2016-08-07T09:29:40.699Z,525
2016-08-07T09:31:43.556Z,615
2016-08-07T09:32:44.451Z,655
2016-08-07T09:33:41.728Z,585
2016-08-07T09:34:42.344Z,445
2016-08-07T09:35:41.509Z,350
2016-08-07T09:36:40.565Z,310
2016-08-07T09:37:40.569Z,290
2016-08-07T09:38:40.594Z,290
2016-08-07T09:39:40.586Z,315
2016-08-07T09:40:40.602Z,330
2016-08-07T09:41:40.591Z,375
2016-08-07T09:42:40.618Z,430
2016-08-07T09:43:40.601Z,500
2016-08-07T09:44:40.625Z,545
2016-08-07T09:45:40.623Z,575
2016-08-07T09:46:40.624Z,605
2016-08-07T09:47:40.636Z,570
2016-08-07T09:48:40.641Z,525
2016-08-07T09:49:40.637Z,505
2016-08-07T09:50:41.345Z,500
2016-08-07T09:51:40.663Z,440
2016-08-07T09:52:40.657Z,380
2016-08-07T09:53:40.661Z,335
2016-08-07T09:54:40.673Z,320
2016-08-07T09:55:40.689Z,305
2016-08-07T09:56:40.695Z,320
2016-08-07T09:57:40.686Z,365
2016-08-07T09:58:40.687Z,395
2016-08-07T09:59:40.691Z,415
2016-08-07T10:00:40.696Z,415
2016-08-07T10:01:40.702Z,425
2016-08-07T10:02:40.709Z,440
2016-08-07T10:03:40.713Z,425
2016-08-07T10:04:40.821Z,425
2016-08-07T10:05:40.736Z,380
2016-08-07T10:06:41.008Z,320
2016-08-07T10:07:40.742Z,290
2016-08-07T10:08:40.746Z,285
2016-08-07T10:09:40.747Z,305
2016-08-07T10:10:40.759Z,335
2016-08-07T10:11:40.761Z,355
2016-08-07T10:12:40.769Z,385
2016-08-07T10:13:40.770Z,385
2016-08-07T10:14:40.776Z,405
2016-08-07T10:15:40.775Z,410
2016-08-07T10:16:40.800Z,420
2016-08-07T10:17:40.790Z,380
2016-08-07T10:18:40.793Z,355
2016-08-07T10:20:11.483Z,350
2016-08-07T10:20:43.464Z,350
2016-08-07T10:21:41.319Z,365
2016-08-07T10:22:56.334Z,310
2016-08-07T10:23:41.920Z,315
2016-08-07T10:24:42.490Z,370
2016-08-07T10:25:40.827Z,415
2016-08-07T10:26:40.887Z,430
2016-08-07T10:27:41.547Z,495
2016-08-07T10:28:41.903Z,555
2016-08-07T10:29:41.047Z,525
2016-08-07T10:30:56.730Z,465
2016-08-07T10:31:56.536Z,440
2016-08-07T10:32:42.263Z,395
2016-08-07T10:33:40.865Z,355
2016-08-07T10:34:40.895Z,325
2016-08-07T10:35:40.863Z,340
2016-08-07T10:36:40.984Z,340
2016-08-07T10:37:40.888Z,320
2016-08-07T10:38:40.897Z,300
2016-08-07T10:39:40.893Z,325
2016-08-07T10:40:59.642Z,310
2016-08-07T10:41:44.897Z,340
2016-08-07T10:42:42.782Z,350
2016-08-07T10:43:43.749Z,355
2016-08-07T10:44:40.929Z,395
2016-08-07T10:45:41.901Z,425
2016-08-07T10:46:40.914Z,445
2016-08-07T10:47:40.922Z,450
2016-08-07T10:48:40.926Z,430
2016-08-07T10:49:43.772Z,420
2016-08-07T10:50:43.571Z,390
2016-08-07T10:51:41.943Z,360
2016-08-07T10:52:43.397Z,360
2016-08-07T10:53:40.966Z,360
2016-08-07T10:54:40.957Z,365
2016-08-07T10:55:41.003Z,380
2016-08-07T10:56:40.979Z,325
2016-08-07T10:57:40.971Z,315
2016-08-07T10:58:40.968Z,350
2016-08-07T10:59:40.977Z,385
2016-08-07T11:00:40.981Z,430
2016-08-07T11:01:40.980Z,485
2016-08-07T11:02:41.689Z,540
2016-08-07T11:03:40.994Z,555
2016-08-07T11:04:40.999Z,565
2016-08-07T11:05:41.695Z,555
2016-08-07T11:06:41.020Z,580
2016-08-07T11:07:41.011Z,625
2016-08-07T11:08:41.043Z,640
2016-08-07T11:09:41.012Z,640
2016-08-07T11:10:41.023Z,640
2016-08-07T11:11:41.028Z,635
2016-08-07T11:12:41.042Z,610
2016-08-07T11:13:41.037Z,590
2016-08-07T11:14:41.043Z,590
2016-08-07T11:15:41.053Z,610
2016-08-07T11:16:41.052Z,635
2016-08-07T11:17:41.054Z,645
2016-08-07T11:18:41.054Z,660
2016-08-07T11:19:41.072Z,655
2016-08-07T11:20:41.072Z,665
2016-08-07T11:21:41.082Z,690
2016-08-07T11:22:41.094Z,705
2016-08-07T11:23:41.103Z,690
2016-08-07T11:24:41.091Z,655
2016-08-07T11:25:41.104Z,625
2016-08-07T11:26:41.106Z,595
2016-08-07T11:27:41.108Z,570
2016-08-07T11:28:41.118Z,555
2016-08-07T11:29:41.121Z,530
2016-08-07T11:30:41.121Z,495
2016-08-07T11:31:41.142Z,475
2016-08-07T11:32:41.139Z,495
2016-08-07T11:33:41.154Z,500
2016-08-07T11:34:41.150Z,460
2016-08-07T11:35:41.164Z,430
2016-08-07T11:36:41.176Z,400
2016-08-07T11:37:57.396Z,405
2016-08-07T11:38:56.101Z,415
2016-08-07T11:40:56.259Z,515
2016-08-07T11:42:41.221Z,530
2016-08-07T11:43:41.210Z,530
2016-08-07T11:44:41.933Z,535
2016-08-07T11:45:41.232Z,565
2016-08-07T11:46:43.345Z,595
2016-08-07T11:47:57.618Z,605
2016-08-07T11:48:42.996Z,580
2016-08-07T11:49:56.173Z,560
2016-08-07T11:50:42.359Z,560
2016-08-07T11:51:41.323Z,555
2016-08-07T11:52:41.869Z,555
2016-08-07T11:53:41.636Z,555
2016-08-07T11:54:41.290Z,530
2016-08-07T11:55:41.287Z,520
2016-08-07T11:56:41.306Z,510
2016-08-07T11:57:41.319Z,485
2016-08-07T11:58:43.612Z,410
2016-08-07T11:59:43.961Z,350
2016-08-07T12:00:42.889Z,310
2016-08-07T12:01:41.749Z,300
2016-08-07T12:02:42.397Z,285
2016-08-07T12:03:42.418Z,265
2016-08-07T12:04:42.409Z,255
2016-08-07T12:05:41.369Z,245
2016-08-07T12:06:41.369Z,240
2016-08-07T12:07:43.819Z,240
2016-08-07T12:08:44.417Z,235
2016-08-07T12:09:45.490Z,230
2016-08-07T12:10:44.466Z,220
2016-08-07T12:11:42.452Z,220
2016-08-07T12:12:42.893Z,215
2016-08-07T12:13:42.244Z,215
2016-08-07T12:14:41.413Z,210
2016-08-07T12:15:41.511Z,215
2016-08-07T12:16:41.416Z,210
2016-08-07T12:17:41.438Z,210
2016-08-07T12:18:41.431Z,210
2016-08-07T12:19:41.441Z,210
2016-08-07T12:20:41.454Z,200
2016-08-07T12:21:41.470Z,195
2016-08-07T12:22:41.453Z,220
2016-08-07T12:23:41.457Z,235
2016-08-07T12:24:41.464Z,230
2016-08-07T12:25:41.464Z,225
2016-08-07T12:26:41.474Z,210
2016-08-07T12:27:41.476Z,205
2016-08-07T12:28:41.485Z,195
2016-08-07T12:29:41.494Z,190
2016-08-07T12:30:41.499Z,190
2016-08-07T12:31:42.200Z,185
2016-08-07T12:32:41.492Z,185
2016-08-07T12:33:41.521Z,190
2016-08-07T12:34:41.510Z,190
2016-08-07T12:35:41.532Z,185
2016-08-07T12:36:41.527Z,185
2016-08-07T12:37:41.518Z,185
2016-08-07T12:38:41.544Z,185
2016-08-07T12:39:41.531Z,185
2016-08-07T12:40:41.527Z,185
2016-08-07T12:41:41.537Z,185
2016-08-07T12:42:41.546Z,185
2016-08-07T12:43:41.554Z,190
2016-08-07T12:44:41.565Z,185
2016-08-07T12:45:41.549Z,185
2016-08-07T12:46:41.551Z,185
2016-08-07T12:47:41.571Z,185
2016-08-07T12:48:41.586Z,185
2016-08-07T12:49:41.570Z,190
2016-08-07T12:50:41.561Z,190
2016-08-07T12:51:41.567Z,195
2016-08-07T12:52:41.585Z,200
2016-08-07T12:53:41.582Z,205
2016-08-07T12:54:41.581Z,205
2016-08-07T12:55:57.702Z,210
2016-08-07T12:56:42.940Z,215
2016-08-07T12:57:57.313Z,220
2016-08-07T12:58:57.682Z,220
2016-08-07T12:59:56.516Z,230
2016-08-07T13:00:43.149Z,240
2016-08-07T13:01:41.607Z,255
2016-08-07T13:02:41.624Z,260
2016-08-07T13:03:41.618Z,255
2016-08-07T13:04:41.735Z,260
2016-08-07T13:05:58.139Z,270
2016-08-07T13:07:12.314Z,295
2016-08-07T13:09:41.642Z,345
2016-08-07T13:10:42.383Z,365
2016-08-07T13:11:41.654Z,405
2016-08-07T13:12:41.648Z,420
2016-08-07T13:13:41.656Z,425
2016-08-07T13:14:41.655Z,420
2016-08-07T13:15:41.665Z,405
2016-08-07T13:16:43.580Z,390
2016-08-07T13:18:44.219Z,370
2016-08-07T13:19:43.674Z,365
2016-08-07T13:20:42.780Z,345
2016-08-07T13:21:42.922Z,335
2016-08-07T13:22:41.701Z,335
2016-08-07T13:23:41.691Z,350
2016-08-07T13:24:41.693Z,365
2016-08-07T13:26:44.806Z,370
2016-08-07T13:27:43.172Z,360
2016-08-07T13:28:43.179Z,340
2016-08-07T13:29:42.796Z,315
2016-08-07T13:30:42.072Z,300
2016-08-07T13:31:41.735Z,280
2016-08-07T13:32:41.735Z,275
2016-08-07T13:33:42.452Z,270
2016-08-07T13:34:41.742Z,270
2016-08-07T13:35:41.764Z,275
2016-08-07T13:36:41.765Z,275
2016-08-07T13:37:41.755Z,285
2016-08-07T13:38:41.765Z,285
2016-08-07T13:39:41.771Z,295
2016-08-07T13:40:41.778Z,290
2016-08-07T13:41:41.778Z,290
2016-08-07T13:42:41.786Z,285
2016-08-07T13:43:41.790Z,280
2016-08-07T13:44:41.798Z,280
2016-08-07T13:45:41.798Z,265
2016-08-07T13:46:41.814Z,260
2016-08-07T13:47:41.798Z,255
2016-08-07T13:48:41.818Z,245
2016-08-07T13:49:41.820Z,235
2016-08-07T13:50:41.818Z,225
2016-08-07T13:51:41.825Z,215
2016-08-07T13:52:41.846Z,210
2016-08-07T13:53:41.830Z,200
2016-08-07T13:54:42.544Z,195
2016-08-07T13:55:41.840Z,190
2016-08-07T13:56:41.869Z,185
2016-08-07T13:57:41.865Z,185
2016-08-07T13:58:41.861Z,180
2016-08-07T13:59:41.864Z,180
2016-08-07T14:00:41.872Z,180
2016-08-07T14:01:41.874Z,175
2016-08-07T14:02:41.874Z,175
2016-08-07T14:03:41.880Z,175
2016-08-07T14:04:41.888Z,175
2016-08-07T14:05:41.879Z,175
2016-08-07T14:06:41.885Z,175
2016-08-07T14:07:41.894Z,175
2016-08-07T14:08:41.899Z,175
2016-08-07T14:09:41.914Z,175
2016-08-07T14:10:41.926Z,175
2016-08-07T14:11:41.918Z,175
2016-08-07T14:12:41.920Z,175
2016-08-07T14:13:41.928Z,175
2016-08-07T14:14:42.532Z,175
2016-08-07T14:15:43.480Z,175
2016-08-07T14:17:43.543Z,180
2016-08-07T14:18:43.246Z,175
2016-08-07T14:19:42.545Z,175
2016-08-07T14:20:41.940Z,175
2016-08-07T14:21:42.650Z,175
2016-08-07T14:22:41.953Z,175
2016-08-07T14:23:43.767Z,175
2016-08-07T14:24:43.077Z,175
2016-08-07T14:26:43.421Z,175
2016-08-07T14:27:42.676Z,175
2016-08-07T14:28:43.326Z,180
2016-08-07T14:29:42.028Z,190
2016-08-07T14:30:41.985Z,200
2016-08-07T14:31:41.990Z,210
2016-08-07T14:32:41.993Z,230
2016-08-07T14:33:42.002Z,260
2016-08-07T14:34:44.353Z,285
2016-08-07T14:35:45.019Z,300
2016-08-07T14:36:43.140Z,305
2016-08-07T14:37:43.228Z,295
2016-08-07T14:38:42.147Z,270
2016-08-07T14:39:43.550Z,255
2016-08-07T14:40:42.027Z,235
2016-08-07T14:41:42.030Z,215
2016-08-07T14:42:42.174Z,210
2016-08-07T14:43:46.651Z,200
2016-08-07T14:44:44.869Z,195
2016-08-07T14:45:43.856Z,190